Newport, New Hampshire
Current Conditions -  °F | °C
As of 12:54 PM on Sunday 21 Dec 2014 (Local Time) from KVSF Reporting Station
Light Snow Light Snow  
Wind Chill: 29°   Ceiling: 4200
Heat Index: 29°   Visibility: 1.7mi
Dew Point: 25°   Wind: 0mph
Humidity: 85%   Direction: NA
Pressure: 30.3"   Gusts: NA
Location:  43.36°N, 72.17°W
Report Text: KVSF 211754Z AUTO 00000KT 1 3/4SM -SN BR OVC042 M02/M04 A3030 RMK AO2 SLP270 P0000 60002 T10171039 11017 21039 58013 TSNO
Loading
Personal Weather Stations






























Interactive Weather Map New forecast layout! Learn more

10-Day Weather Forecast

Advertisements
Track Severe Weather on mobile